createdAt,value
2017-07-11T00:00:23.406Z,14.7
2017-07-11T00:01:25.471Z,14.7
2017-07-11T00:02:27.512Z,14.7
2017-07-11T00:03:29.575Z,14.7
2017-07-11T00:04:31.623Z,14.7
2017-07-11T00:05:33.679Z,14.7
2017-07-11T00:06:35.737Z,14.7
2017-07-11T00:07:37.796Z,14.7
2017-07-11T00:08:39.857Z,14.8
2017-07-11T00:09:41.907Z,14.7
2017-07-11T00:10:43.967Z,14.7
2017-07-11T00:11:46.028Z,14.7
2017-07-11T00:12:48.075Z,14.7
2017-07-11T00:13:50.141Z,14.7
2017-07-11T00:14:52.194Z,14.6
2017-07-11T00:15:54.266Z,14.6
2017-07-11T00:16:56.320Z,14.6
2017-07-11T00:17:58.723Z,14.6
2017-07-11T00:19:01.111Z,14.7
2017-07-11T00:20:03.165Z,14.6
2017-07-11T00:21:05.234Z,14.7
2017-07-11T00:22:07.287Z,14.7
2017-07-11T00:23:09.343Z,14.7
2017-07-11T00:24:11.394Z,14.7
2017-07-11T00:25:13.447Z,14.8
2017-07-11T00:26:15.495Z,14.7
2017-07-11T00:27:17.552Z,14.7
2017-07-11T00:28:19.619Z,14.7
2017-07-11T00:29:21.673Z,14.7
2017-07-11T00:30:23.727Z,14.7
2017-07-11T00:31:25.784Z,14.7
2017-07-11T00:32:27.836Z,14.7
2017-07-11T00:33:29.890Z,14.7
2017-07-11T00:34:31.945Z,14.7
2017-07-11T00:35:34.006Z,14.7
2017-07-11T00:36:36.063Z,14.7
2017-07-11T00:37:38.122Z,14.7
2017-07-11T00:38:40.173Z,14.7
2017-07-11T00:39:42.229Z,14.6
2017-07-11T00:40:44.293Z,14.6
2017-07-11T00:41:46.346Z,14.7
2017-07-11T00:42:48.396Z,14.7
2017-07-11T00:43:50.453Z,14.7
2017-07-11T00:44:52.500Z,14.7
2017-07-11T00:45:54.553Z,14.7
2017-07-11T00:46:56.612Z,14.7
2017-07-11T00:47:58.675Z,14.6
2017-07-11T00:49:00.732Z,14.6
2017-07-11T00:50:02.780Z,14.6
2017-07-11T00:51:04.832Z,14.6
2017-07-11T00:52:06.897Z,14.6
2017-07-11T00:53:08.957Z,14.6
2017-07-11T00:54:11.011Z,14.6
2017-07-11T00:55:13.063Z,14.6
2017-07-11T00:56:15.121Z,14.6
2017-07-11T00:57:17.521Z,14.6
2017-07-11T00:58:19.582Z,14.6
2017-07-11T00:59:21.631Z,14.6
2017-07-11T01:00:23.699Z,14.6
2017-07-11T01:01:25.745Z,14.6
2017-07-11T01:02:27.801Z,14.6
2017-07-11T01:03:29.861Z,14.6
2017-07-11T01:04:31.916Z,14.6
2017-07-11T01:05:33.976Z,14.6
2017-07-11T01:06:36.028Z,14.6
2017-07-11T01:07:38.086Z,14.6
2017-07-11T01:08:40.155Z,14.6
2017-07-11T01:09:42.204Z,14.6
2017-07-11T01:10:44.250Z,14.6
2017-07-11T01:11:46.657Z,14.6
2017-07-11T01:12:48.709Z,14.6
2017-07-11T01:13:50.757Z,14.5
2017-07-11T01:14:52.807Z,14.5
2017-07-11T01:15:54.875Z,14.5
2017-07-11T01:16:56.929Z,14.5
2017-07-11T01:17:59.331Z,14.6
2017-07-11T01:19:01.387Z,14.6
2017-07-11T01:20:03.444Z,14.6
2017-07-11T01:21:05.497Z,14.5
2017-07-11T01:22:07.556Z,14.5
2017-07-11T01:23:09.611Z,14.5
2017-07-11T01:24:11.678Z,14.6
2017-07-11T01:25:13.728Z,14.5
2017-07-11T01:26:15.781Z,14.5
2017-07-11T01:27:17.839Z,14.5
2017-07-11T01:28:19.893Z,14.6
2017-07-11T01:29:21.951Z,14.6
2017-07-11T01:30:24.003Z,14.6
2017-07-11T01:31:26.056Z,14.5
2017-07-11T01:32:28.117Z,14.5
2017-07-11T01:33:30.165Z,14.6
2017-07-11T01:34:32.222Z,14.5
2017-07-11T01:35:34.278Z,14.6
2017-07-11T01:36:36.678Z,14.6
2017-07-11T01:37:38.739Z,14.5
2017-07-11T01:38:40.789Z,14.5
2017-07-11T01:39:42.849Z,14.5
2017-07-11T01:40:44.904Z,14.6
2017-07-11T01:41:46.945Z,14.5
2017-07-11T01:42:49.006Z,14.5
2017-07-11T01:43:51.065Z,14.5
2017-07-11T01:44:53.116Z,14.5
2017-07-11T01:45:55.171Z,14.4
2017-07-11T01:46:57.227Z,14.4
2017-07-11T01:47:59.291Z,14.5
2017-07-11T01:49:01.332Z,14.5
2017-07-11T01:50:03.387Z,14.4
2017-07-11T01:51:05.444Z,14.4
2017-07-11T01:52:07.846Z,14.4
2017-07-11T01:53:09.907Z,14.5
2017-07-11T01:54:11.961Z,14.5
2017-07-11T01:55:14.016Z,14.5
2017-07-11T01:56:16.081Z,14.5
2017-07-11T01:57:18.125Z,14.4
2017-07-11T01:58:20.187Z,14.4
2017-07-11T01:59:22.245Z,14.4
2017-07-11T02:00:24.299Z,14.4
2017-07-11T02:01:26.357Z,14.4
2017-07-11T02:02:28.412Z,14.4
2017-07-11T02:03:30.462Z,14.4
2017-07-11T02:04:32.520Z,14.3
2017-07-11T02:05:34.571Z,14.3
2017-07-11T02:06:36.628Z,14.3
2017-07-11T02:07:39.028Z,14.3
2017-07-11T02:08:41.082Z,14.3
2017-07-11T02:09:43.137Z,14.3
2017-07-11T02:10:45.189Z,14.3
2017-07-11T02:11:47.249Z,14.4
2017-07-11T02:12:49.303Z,14.3
2017-07-11T02:13:51.355Z,14.3
2017-07-11T02:14:53.412Z,14.3
2017-07-11T02:15:55.465Z,14.3
2017-07-11T02:16:57.516Z,14.3
2017-07-11T02:17:59.570Z,14.3
2017-07-11T02:19:01.627Z,14.3
2017-07-11T02:20:03.677Z,14.3
2017-07-11T02:21:05.734Z,14.3
2017-07-11T02:22:07.785Z,14.3
2017-07-11T02:23:09.843Z,14.3
2017-07-11T02:24:11.903Z,14.2
2017-07-11T02:25:13.962Z,14.2
2017-07-11T02:26:16.013Z,14.2
2017-07-11T02:27:18.070Z,14.1
2017-07-11T02:28:20.125Z,14.1
2017-07-11T02:29:22.170Z,14.2
2017-07-11T02:30:24.231Z,14.1
2017-07-11T02:31:26.289Z,14.1
2017-07-11T02:32:28.347Z,14.1
2017-07-11T02:33:30.406Z,14.1
2017-07-11T02:34:32.460Z,14.1
2017-07-11T02:35:34.519Z,14.1
2017-07-11T02:36:36.569Z,14.1
2017-07-11T02:37:38.626Z,14.1
2017-07-11T02:38:40.688Z,14
2017-07-11T02:39:42.741Z,14
2017-07-11T02:40:44.798Z,14
2017-07-11T02:41:46.855Z,14
2017-07-11T02:42:49.260Z,14
2017-07-11T02:43:51.318Z,14
2017-07-11T02:44:53.378Z,14
2017-07-11T02:45:55.433Z,14
2017-07-11T02:46:57.485Z,13.9
2017-07-11T02:47:59.536Z,13.9
2017-07-11T02:49:01.589Z,13.9
2017-07-11T02:50:03.647Z,13.9
2017-07-11T02:51:05.704Z,14
2017-07-11T02:52:08.111Z,14
2017-07-11T02:53:10.511Z,13.9
2017-07-11T02:54:12.574Z,14
2017-07-11T02:55:14.626Z,13.9
2017-07-11T02:56:16.692Z,13.9
2017-07-11T02:57:18.745Z,13.9
2017-07-11T02:58:21.149Z,13.9
2017-07-11T02:59:23.206Z,13.9
2017-07-11T03:00:25.257Z,13.9
2017-07-11T03:01:27.319Z,13.9
2017-07-11T03:02:29.377Z,14
2017-07-11T03:03:31.425Z,14
2017-07-11T03:04:33.492Z,14
2017-07-11T03:05:35.550Z,14
2017-07-11T03:06:37.607Z,13.9
2017-07-11T03:07:39.670Z,13.9
2017-07-11T03:08:41.722Z,13.9
2017-07-11T03:09:43.788Z,13.9
2017-07-11T03:10:46.183Z,13.9
2017-07-11T03:11:48.235Z,13.9
2017-07-11T03:12:50.304Z,13.9
2017-07-11T03:13:52.363Z,13.9
2017-07-11T03:14:54.430Z,13.9
2017-07-11T03:15:56.481Z,13.9
2017-07-11T03:16:58.537Z,13.9
2017-07-11T03:18:00.594Z,13.9
2017-07-11T03:19:02.640Z,14
2017-07-11T03:20:04.702Z,13.9
2017-07-11T03:21:06.760Z,13.9
2017-07-11T03:22:08.857Z,13.9
2017-07-11T03:23:10.875Z,14
2017-07-11T03:24:12.937Z,14
2017-07-11T03:25:14.995Z,13.9
2017-07-11T03:26:17.047Z,13.9
2017-07-11T03:27:19.105Z,13.9
2017-07-11T03:28:21.152Z,13.9
2017-07-11T03:29:23.210Z,14
2017-07-11T03:30:25.335Z,13.9
2017-07-11T03:31:27.336Z,13.9
2017-07-11T03:32:29.388Z,13.9
2017-07-11T03:33:31.447Z,13.9
2017-07-11T03:34:33.501Z,13.9
2017-07-11T03:35:35.557Z,13.9
2017-07-11T03:36:37.615Z,13.9
2017-07-11T03:37:39.682Z,13.8
2017-07-11T03:38:41.741Z,13.9
2017-07-11T03:39:43.794Z,13.8
2017-07-11T03:40:45.851Z,13.8
2017-07-11T03:41:47.914Z,13.9
2017-07-11T03:42:49.972Z,13.9
2017-07-11T03:43:52.369Z,13.9
2017-07-11T03:44:54.431Z,13.9
2017-07-11T03:45:56.487Z,13.9
2017-07-11T03:46:58.545Z,13.9
2017-07-11T03:48:00.598Z,13.9
2017-07-11T03:49:02.661Z,13.9
2017-07-11T03:50:04.723Z,13.9
2017-07-11T03:51:06.777Z,14
2017-07-11T03:52:08.835Z,14
2017-07-11T03:53:10.891Z,14
2017-07-11T03:54:12.944Z,14
2017-07-11T03:55:14.999Z,14
2017-07-11T03:56:17.051Z,14
2017-07-11T03:57:19.114Z,14
2017-07-11T03:58:21.518Z,14
2017-07-11T03:59:23.569Z,14.1
2017-07-11T04:00:25.629Z,14.1
2017-07-11T04:01:27.693Z,14.1
2017-07-11T04:02:29.752Z,14.1
2017-07-11T04:03:31.796Z,14.1
2017-07-11T04:04:33.852Z,14
2017-07-11T04:05:35.905Z,14
2017-07-11T04:06:37.964Z,14.1
2017-07-11T04:07:40.025Z,14.1
2017-07-11T04:08:42.083Z,14.1
2017-07-11T04:09:44.489Z,14
2017-07-11T04:10:46.541Z,14.1
2017-07-11T04:11:48.593Z,14.1
2017-07-11T04:12:50.659Z,14.1
2017-07-11T04:13:52.716Z,14.1
2017-07-11T04:14:54.784Z,14.1
2017-07-11T04:15:56.838Z,14.1
2017-07-11T04:16:58.892Z,14.1
2017-07-11T04:18:00.957Z,14.1
2017-07-11T04:19:03.014Z,14.1
2017-07-11T04:20:05.073Z,14.1
2017-07-11T04:21:07.130Z,14.1
2017-07-11T04:22:09.187Z,14.1
2017-07-11T04:23:11.235Z,14.1
2017-07-11T04:24:13.295Z,14.2
2017-07-11T04:25:15.361Z,14.2
2017-07-11T04:26:17.420Z,14.2
2017-07-11T04:27:19.474Z,14.2
2017-07-11T04:28:21.534Z,14.2
2017-07-11T04:29:23.597Z,14.2
2017-07-11T04:30:25.652Z,14.2
2017-07-11T04:31:28.072Z,14.3
2017-07-11T04:32:30.137Z,14.3
2017-07-11T04:33:32.195Z,14.3
2017-07-11T04:34:34.241Z,14.3
2017-07-11T04:35:36.302Z,14.3
2017-07-11T04:36:38.356Z,14.3
2017-07-11T04:37:40.421Z,14.3
2017-07-11T04:38:42.479Z,14.3
2017-07-11T04:39:44.538Z,14.4
2017-07-11T04:40:46.933Z,14.4
2017-07-11T04:41:49.297Z,14.4
2017-07-11T04:42:51.349Z,14.4
2017-07-11T04:43:53.404Z,14.4
2017-07-11T04:44:55.461Z,14.4
2017-07-11T04:45:57.520Z,14.4
2017-07-11T04:46:59.577Z,14.4
2017-07-11T04:48:01.630Z,14.5
2017-07-11T04:50:01.449Z,14.5
2017-07-11T04:51:03.462Z,14.5
2017-07-11T04:52:05.476Z,14.6
2017-07-11T04:53:07.495Z,14.6
2017-07-11T04:54:09.525Z,14.6
2017-07-11T04:55:11.544Z,14.6
2017-07-11T04:56:13.941Z,14.6
2017-07-11T04:57:16.303Z,14.7
2017-07-11T04:58:18.318Z,14.7
2017-07-11T04:59:20.340Z,14.7
2017-07-11T05:00:22.357Z,14.7
2017-07-11T05:01:24.385Z,14.7
2017-07-11T05:02:26.411Z,14.7
2017-07-11T05:03:28.426Z,14.7
2017-07-11T05:04:30.444Z,14.8
2017-07-11T05:05:32.462Z,14.8
2017-07-11T05:06:34.484Z,14.8
2017-07-11T05:07:36.501Z,14.8
2017-07-11T05:08:38.532Z,14.8
2017-07-11T05:09:40.559Z,14.8
2017-07-11T05:10:42.566Z,14.8
2017-07-11T05:11:44.587Z,14.8
2017-07-11T05:12:46.599Z,14.9
2017-07-11T05:13:48.618Z,14.9
2017-07-11T05:14:50.640Z,14.9
2017-07-11T05:15:52.659Z,15
2017-07-11T05:16:54.671Z,14.9
2017-07-11T05:17:56.717Z,15
2017-07-11T05:18:58.743Z,15
2017-07-11T05:20:00.764Z,15
2017-07-11T05:21:02.779Z,15.1
2017-07-11T05:22:04.805Z,15.1
2017-07-11T05:23:06.829Z,15
2017-07-11T05:24:08.844Z,15.1
2017-07-11T05:25:10.866Z,15.1
2017-07-11T05:26:12.877Z,15.1
2017-07-11T05:27:14.897Z,15.1
2017-07-11T05:28:17.255Z,15.1
2017-07-11T05:29:19.263Z,15
2017-07-11T05:30:21.281Z,15.1
2017-07-11T05:31:23.296Z,15.1
2017-07-11T05:32:25.662Z,15.2
2017-07-11T05:33:27.679Z,15.1
2017-07-11T05:34:29.682Z,15.2
2017-07-11T05:35:31.708Z,15.2
2017-07-11T05:36:34.072Z,15.2
2017-07-11T05:37:36.085Z,15.1
2017-07-11T05:38:38.111Z,15.1
2017-07-11T05:39:40.138Z,15.1
2017-07-11T05:40:42.157Z,15.2
2017-07-11T05:41:44.162Z,15.2
2017-07-11T05:42:50.046Z,15.2
2017-07-11T05:43:57.734Z,15.2
2017-07-11T05:45:01.986Z,15.3
2017-07-11T05:46:05.247Z,15.3
2017-07-11T05:47:11.942Z,15.3
2017-07-11T05:48:19.305Z,15.2
2017-07-11T05:49:28.675Z,15.2
2017-07-11T05:50:37.967Z,15.2
2017-07-11T05:51:45.608Z,15.2
2017-07-11T05:52:52.496Z,15.3
2017-07-11T05:54:00.719Z,15.4
2017-07-11T05:55:07.326Z,15.4
2017-07-11T05:56:14.060Z,15.4
2017-07-11T05:57:25.203Z,15.4
2017-07-11T05:58:31.589Z,15.5
2017-07-11T05:59:40.962Z,15.4
2017-07-11T06:00:49.141Z,15.4
2017-07-11T06:01:55.722Z,15.6
2017-07-11T06:03:03.604Z,15.6
2017-07-11T06:04:12.093Z,15.7
2017-07-11T06:05:20.224Z,15.7
2017-07-11T06:06:29.016Z,15.8
2017-07-11T06:07:36.187Z,15.8
2017-07-11T06:08:42.130Z,15.9
2017-07-11T06:09:50.602Z,16
2017-07-11T06:11:00.001Z,16
2017-07-11T06:12:07.364Z,16.2
2017-07-11T06:13:13.135Z,16.2
2017-07-11T06:14:21.131Z,16.1
2017-07-11T06:15:29.752Z,16
2017-07-11T06:16:38.037Z,16.1
2017-07-11T06:17:44.939Z,16.1
2017-07-11T06:18:50.428Z,16.2
2017-07-11T06:19:57.345Z,16.3
2017-07-11T06:21:02.680Z,16.3
2017-07-11T06:22:10.581Z,16.2
2017-07-11T06:23:17.736Z,16.2
2017-07-11T06:24:25.602Z,16.3
2017-07-11T06:25:32.216Z,16.3
2017-07-11T06:26:40.975Z,16.4
2017-07-11T06:27:51.695Z,16.4
2017-07-11T06:29:30.446Z,16.3
2017-07-11T06:30:41.397Z,16.3
2017-07-11T06:31:51.454Z,16.3
2017-07-11T06:33:03.130Z,16.3
2017-07-11T06:34:14.791Z,16.2
2017-07-11T06:35:25.454Z,16.3
2017-07-11T06:36:37.765Z,16.2
2017-07-11T06:37:51.052Z,16.3
2017-07-11T06:39:01.538Z,16.3
2017-07-11T06:40:11.449Z,16.4
2017-07-11T06:41:19.153Z,16.4
2017-07-11T06:42:28.337Z,16.4
2017-07-11T06:43:35.928Z,16.4
2017-07-11T06:44:43.436Z,16.5
2017-07-11T06:45:51.732Z,16.5
2017-07-11T06:46:59.369Z,16.5
2017-07-11T06:48:04.455Z,16.5
2017-07-11T06:49:11.704Z,16.5
2017-07-11T06:50:19.529Z,16.5
2017-07-11T06:51:23.370Z,16.6
2017-07-11T06:52:25.744Z,16.6
2017-07-11T06:53:27.770Z,16.6
2017-07-11T06:54:29.796Z,16.5
2017-07-11T06:55:31.820Z,16.4
2017-07-11T06:56:34.183Z,16.4
2017-07-11T06:57:36.200Z,16.4
2017-07-11T06:58:38.223Z,16.5
2017-07-11T06:59:40.233Z,16.5
2017-07-11T07:00:42.264Z,16.5
2017-07-11T07:01:44.287Z,16.5
2017-07-11T07:02:46.309Z,16.5
2017-07-11T07:03:48.331Z,16.5
2017-07-11T07:04:50.348Z,16.6
2017-07-11T07:05:52.372Z,16.6
2017-07-11T07:06:54.399Z,16.7
2017-07-11T07:07:56.413Z,16.7
2017-07-11T07:08:58.440Z,16.8
2017-07-11T07:10:00.457Z,16.7
2017-07-11T07:11:02.478Z,16.6
2017-07-11T07:12:04.497Z,16.6
2017-07-11T07:13:06.526Z,16.7
2017-07-11T07:14:08.546Z,16.7
2017-07-11T07:15:10.581Z,16.8
2017-07-11T07:16:12.593Z,16.9
2017-07-11T07:17:14.606Z,17
2017-07-11T07:18:16.637Z,17.1
2017-07-11T07:19:18.661Z,17.2
2017-07-11T07:20:20.677Z,17.2
2017-07-11T07:21:22.700Z,17.3
2017-07-11T07:22:24.714Z,17.3
2017-07-11T07:23:26.741Z,17.4
2017-07-11T07:24:28.768Z,17.4
2017-07-11T07:25:30.785Z,17.4
2017-07-11T07:26:32.813Z,17.4
2017-07-11T07:27:34.823Z,17.5
2017-07-11T07:28:36.845Z,17.4
2017-07-11T07:29:38.866Z,17.3
2017-07-11T07:30:40.890Z,17.4
2017-07-11T07:31:42.916Z,17.4
2017-07-11T07:32:44.941Z,17.3
2017-07-11T07:33:46.969Z,17.3
2017-07-11T07:34:48.993Z,17.3
2017-07-11T07:35:51.013Z,17.4
2017-07-11T07:36:53.030Z,17.4
2017-07-11T07:37:55.057Z,17.4
2017-07-11T07:38:57.082Z,17.4
2017-07-11T07:39:59.096Z,17.4
2017-07-11T07:41:01.125Z,17.3
2017-07-11T07:42:03.155Z,17.3
2017-07-11T07:43:05.177Z,17.3
2017-07-11T07:44:07.201Z,17.3
2017-07-11T07:45:09.236Z,17.3
2017-07-11T07:46:11.253Z,17.5
2017-07-11T07:47:13.274Z,17.5
2017-07-11T07:48:15.294Z,17.5
2017-07-11T07:49:17.328Z,17.6
2017-07-11T07:50:19.359Z,17.5
2017-07-11T07:51:21.373Z,17.6
2017-07-11T07:52:23.403Z,17.7
2017-07-11T07:53:25.426Z,17.8
2017-07-11T07:54:27.444Z,17.8
2017-07-11T07:55:29.465Z,17.9
2017-07-11T07:56:31.481Z,17.8
2017-07-11T07:57:33.499Z,17.7
2017-07-11T07:58:35.526Z,17.8
2017-07-11T07:59:37.544Z,17.9
2017-07-11T08:00:39.923Z,17.9
2017-07-11T08:01:41.947Z,17.9
2017-07-11T08:02:43.972Z,17.8
2017-07-11T08:03:45.997Z,17.7
2017-07-11T08:04:48.017Z,17.6
2017-07-11T08:05:50.043Z,17.6
2017-07-11T08:06:52.075Z,17.6
2017-07-11T08:07:54.088Z,17.7
2017-07-11T08:08:56.119Z,17.8
2017-07-11T08:09:58.141Z,17.9
2017-07-11T08:11:00.162Z,17.8
2017-07-11T08:12:02.181Z,17.8
2017-07-11T08:13:04.208Z,17.9
2017-07-11T08:14:06.230Z,17.9
2017-07-11T08:15:08.260Z,17.9
2017-07-11T08:16:10.279Z,18
2017-07-11T08:17:12.298Z,18.1
2017-07-11T08:18:14.318Z,18.1
2017-07-11T08:19:16.343Z,18.1
2017-07-11T08:20:18.373Z,18
2017-07-11T08:21:20.395Z,18
2017-07-11T08:22:22.412Z,18
2017-07-11T08:23:24.438Z,18.1
2017-07-11T08:24:26.464Z,18.1
2017-07-11T08:25:28.491Z,18.2
2017-07-11T08:26:30.518Z,18.2
2017-07-11T08:27:32.546Z,18.2
2017-07-11T08:28:34.572Z,18.2
2017-07-11T08:29:36.584Z,18.2
2017-07-11T08:30:38.609Z,18.1
2017-07-11T08:31:40.646Z,18.1
2017-07-11T08:32:42.671Z,18.1
2017-07-11T08:33:44.700Z,18.1
2017-07-11T08:34:46.716Z,18.1
2017-07-11T08:35:48.749Z,18.1
2017-07-11T08:36:50.771Z,18.1
2017-07-11T08:37:52.799Z,18
2017-07-11T08:38:54.816Z,18.1
2017-07-11T08:39:56.845Z,18.2
2017-07-11T08:40:58.881Z,18.2
2017-07-11T08:42:00.894Z,18.2
2017-07-11T08:43:02.922Z,18.3
2017-07-11T08:44:04.951Z,18.3
2017-07-11T08:45:06.977Z,18.4
2017-07-11T08:46:09.004Z,18.4
2017-07-11T08:47:11.361Z,18.5
2017-07-11T08:48:13.392Z,18.5
2017-07-11T08:49:15.421Z,18.6
2017-07-11T08:50:17.444Z,18.7
2017-07-11T08:51:19.476Z,18.6
2017-07-11T08:52:21.497Z,18.6
2017-07-11T08:53:23.521Z,18.6
2017-07-11T08:54:25.541Z,18.6
2017-07-11T08:55:27.575Z,18.7
2017-07-11T08:56:29.604Z,18.7
2017-07-11T08:57:31.624Z,18.7
2017-07-11T08:58:33.644Z,18.7
2017-07-11T08:59:35.666Z,18.8
2017-07-11T09:00:37.685Z,18.7
2017-07-11T09:01:39.710Z,18.7
2017-07-11T09:02:41.741Z,18.8
2017-07-11T09:03:43.771Z,18.6
2017-07-11T09:04:45.783Z,18.6
2017-07-11T09:05:47.797Z,18.6
2017-07-11T09:06:49.821Z,18.6
2017-07-11T09:07:51.843Z,18.5
2017-07-11T09:08:53.873Z,18.5
2017-07-11T09:09:55.899Z,18.4
2017-07-11T09:10:57.922Z,18.4
2017-07-11T09:11:59.946Z,18.5
2017-07-11T09:13:01.970Z,18.4
2017-07-11T09:14:03.982Z,18.3
2017-07-11T09:15:06.007Z,18.4
2017-07-11T09:16:08.034Z,18.3
2017-07-11T09:17:10.056Z,18.3
2017-07-11T09:18:12.077Z,18.4
2017-07-11T09:19:14.108Z,18.4
2017-07-11T09:20:16.137Z,18.4
2017-07-11T09:21:18.151Z,18.4
2017-07-11T09:22:20.177Z,18.4
2017-07-11T09:23:22.259Z,18.4
2017-07-11T09:24:24.232Z,18.4
2017-07-11T09:25:26.258Z,18.3
2017-07-11T09:26:28.276Z,18.4
2017-07-11T09:27:30.306Z,18.3
2017-07-11T09:28:32.327Z,18.3
2017-07-11T09:29:34.343Z,18.3
2017-07-11T09:30:36.375Z,18.3
2017-07-11T09:31:38.400Z,18.4
2017-07-11T09:32:40.427Z,18.3
2017-07-11T09:33:42.454Z,18.3
2017-07-11T09:34:44.474Z,18.3
2017-07-11T09:35:46.506Z,18.2
2017-07-11T09:36:48.522Z,18.3
2017-07-11T09:37:50.550Z,18.3
2017-07-11T09:38:52.966Z,18.2
2017-07-11T09:39:54.989Z,18.3
2017-07-11T09:40:57.015Z,18.3
2017-07-11T09:41:59.032Z,18.2
2017-07-11T09:43:01.056Z,18.3
2017-07-11T09:44:03.078Z,18.3
2017-07-11T09:45:05.102Z,18.3
2017-07-11T09:46:07.130Z,18.4
2017-07-11T09:47:09.149Z,18.4
2017-07-11T09:48:11.177Z,18.4
2017-07-11T09:49:13.200Z,18.4
2017-07-11T09:50:15.223Z,18.4
2017-07-11T09:51:17.248Z,18.4
2017-07-11T09:52:19.267Z,18.4
2017-07-11T09:53:21.290Z,18.5
2017-07-11T09:54:23.319Z,18.5
2017-07-11T09:55:25.335Z,18.5
2017-07-11T09:56:27.371Z,18.5
2017-07-11T09:57:29.390Z,18.5
2017-07-11T09:58:31.413Z,18.6
2017-07-11T09:59:33.441Z,18.7
2017-07-11T10:00:35.459Z,18.7
2017-07-11T10:01:37.484Z,18.7
2017-07-11T10:02:39.514Z,18.8
2017-07-11T10:03:41.538Z,18.9
2017-07-11T10:04:43.563Z,18.9
2017-07-11T10:05:45.581Z,19
2017-07-11T10:06:47.607Z,19
2017-07-11T10:07:49.640Z,19.1
2017-07-11T10:08:51.654Z,19.1
2017-07-11T10:09:53.681Z,19.2
2017-07-11T10:10:55.710Z,19.3
2017-07-11T10:11:57.736Z,19.4
2017-07-11T10:12:59.757Z,19.5
2017-07-11T10:14:01.777Z,19.5
2017-07-11T10:15:03.810Z,19.5
2017-07-11T10:16:05.839Z,19.6
2017-07-11T10:17:07.860Z,19.6
2017-07-11T10:18:09.895Z,19.7
2017-07-11T10:19:11.918Z,19.8
2017-07-11T10:20:13.937Z,19.8
2017-07-11T10:21:15.962Z,19.9
2017-07-11T10:22:17.991Z,19.8
2017-07-11T10:23:20.018Z,19.8
2017-07-11T10:24:22.037Z,19.8
2017-07-11T10:25:24.054Z,19.8
2017-07-11T10:26:26.130Z,19.9
2017-07-11T10:27:28.118Z,19.9
2017-07-11T10:28:30.143Z,20
2017-07-11T10:29:32.170Z,20
2017-07-11T10:30:34.197Z,20
2017-07-11T10:31:36.224Z,20
2017-07-11T10:32:38.246Z,20
2017-07-11T10:33:40.268Z,20
2017-07-11T10:34:42.292Z,20
2017-07-11T10:35:44.325Z,20
2017-07-11T10:36:46.688Z,20.1
2017-07-11T10:37:48.726Z,20.1
2017-07-11T10:38:50.751Z,20.1
2017-07-11T10:39:52.772Z,20.1
2017-07-11T10:40:54.799Z,20.1
2017-07-11T10:41:56.820Z,20.1
2017-07-11T10:42:58.859Z,20.1
2017-07-11T10:44:00.878Z,20.2
2017-07-11T10:45:02.901Z,20.3
2017-07-11T10:46:04.936Z,20.4
2017-07-11T10:47:06.961Z,20.3
2017-07-11T10:48:08.984Z,20.1
2017-07-11T10:49:11.008Z,20.2
2017-07-11T10:50:13.036Z,20.2
2017-07-11T10:51:15.058Z,20.4
2017-07-11T10:52:17.078Z,20.4
2017-07-11T10:53:19.109Z,20.5
2017-07-11T10:54:21.137Z,20.8
2017-07-11T10:55:23.160Z,20.9
2017-07-11T10:56:25.192Z,21
2017-07-11T10:57:27.551Z,21.2
2017-07-11T10:58:29.575Z,21.3
2017-07-11T10:59:31.600Z,21.3
2017-07-11T11:00:33.619Z,21.5
2017-07-11T11:01:35.659Z,21.7
2017-07-11T11:02:37.685Z,22
2017-07-11T11:03:39.717Z,22.2
2017-07-11T11:04:41.751Z,22.2
2017-07-11T11:05:43.781Z,22.5
2017-07-11T11:06:45.817Z,22.5
2017-07-11T11:07:47.858Z,22.4
2017-07-11T11:08:49.882Z,22.3
2017-07-11T11:09:51.918Z,22.2
2017-07-11T11:10:53.942Z,22.3
2017-07-11T11:11:56.305Z,22.4
2017-07-11T11:12:58.342Z,22.5
2017-07-11T11:14:00.702Z,22.6
2017-07-11T11:15:02.740Z,22.7
2017-07-11T11:16:04.764Z,22.7
2017-07-11T11:17:06.793Z,22.7
2017-07-11T11:18:08.830Z,22.7
2017-07-11T11:19:10.861Z,22.6
2017-07-11T11:20:12.895Z,22.5
2017-07-11T11:21:14.925Z,22.6
2017-07-11T11:22:16.952Z,22.6
2017-07-11T11:23:18.986Z,22.5
2017-07-11T11:24:21.015Z,22.6
2017-07-11T11:25:23.045Z,22.5
2017-07-11T11:26:25.083Z,22.6
2017-07-11T11:27:27.112Z,22.8
2017-07-11T11:28:29.484Z,23
2017-07-11T11:29:31.511Z,23
2017-07-11T11:30:33.534Z,23.1
2017-07-11T11:31:35.568Z,23.1
2017-07-11T11:32:37.597Z,23.1
2017-07-11T11:33:39.827Z,23
2017-07-11T11:34:41.861Z,23.4
2017-07-11T11:35:43.881Z,23.5
2017-07-11T11:36:45.916Z,23.7
2017-07-11T11:37:47.959Z,23.7
2017-07-11T11:38:49.989Z,24
2017-07-11T11:39:52.031Z,24.1
2017-07-11T11:40:54.056Z,24.1
2017-07-11T11:41:56.089Z,24
2017-07-11T11:42:58.128Z,24.1
2017-07-11T11:44:00.164Z,24.3
2017-07-11T11:45:02.197Z,24.3
2017-07-11T11:46:04.226Z,24.5
2017-07-11T11:47:06.602Z,24.6
2017-07-11T11:48:08.642Z,24.9
2017-07-11T11:49:10.693Z,24.9
2017-07-11T11:50:12.697Z,24.9
2017-07-11T11:51:14.736Z,24.7
2017-07-11T11:52:16.765Z,24.3
2017-07-11T11:53:18.790Z,23.9
2017-07-11T11:54:20.827Z,23.8
2017-07-11T11:55:22.860Z,23.9
2017-07-11T11:56:24.902Z,23.9
2017-07-11T11:57:26.927Z,23.8
2017-07-11T11:58:28.958Z,24.1
2017-07-11T11:59:31.001Z,24.1
2017-07-11T12:00:33.032Z,24.3
2017-07-11T12:01:35.075Z,24.6
2017-07-11T12:02:37.984Z,24.9
2017-07-11T12:03:40.701Z,25
2017-07-11T12:04:42.742Z,25
2017-07-11T12:05:44.777Z,25.1
2017-07-11T12:06:46.819Z,25.2
2017-07-11T12:07:48.870Z,25.5
2017-07-11T12:08:50.899Z,25.6
2017-07-11T12:09:53.458Z,25.5
2017-07-11T12:10:55.528Z,25.5
2017-07-11T12:11:57.571Z,25
2017-07-11T12:12:59.610Z,25.3
2017-07-11T12:14:01.677Z,25.5
2017-07-11T12:15:03.743Z,25.5
2017-07-11T12:16:05.787Z,25.6
2017-07-11T12:17:08.514Z,25.8
2017-07-11T12:18:10.557Z,25.8
2017-07-11T12:19:12.594Z,25.6
2017-07-11T12:20:14.646Z,25.7
2017-07-11T12:21:16.673Z,25.9
2017-07-11T12:22:18.701Z,26.1
2017-07-11T12:23:20.752Z,26.1
2017-07-11T12:24:22.790Z,26.1
2017-07-11T12:25:24.832Z,25.9
2017-07-11T12:26:26.867Z,25.6
2017-07-11T12:27:28.906Z,25.6
2017-07-11T12:28:30.944Z,25.6
2017-07-11T12:29:32.976Z,25.8
2017-07-11T12:30:35.009Z,25.9
2017-07-11T12:31:37.069Z,25.7
2017-07-11T12:32:39.097Z,25.3
2017-07-11T12:33:41.143Z,24.9
2017-07-11T12:34:43.177Z,24.5
2017-07-11T12:35:45.215Z,24.8
2017-07-11T12:36:47.254Z,24.5
2017-07-11T12:37:49.282Z,24.5
2017-07-11T12:38:51.331Z,24.4
2017-07-11T12:39:53.361Z,24.5
2017-07-11T12:40:55.392Z,24.8
2017-07-11T12:41:57.429Z,24.9
2017-07-11T12:42:59.463Z,24.7
2017-07-11T12:44:01.498Z,25.4
2017-07-11T12:45:03.535Z,25.6
2017-07-11T12:46:05.572Z,25.6
2017-07-11T12:47:07.607Z,25.7
2017-07-11T12:48:09.641Z,25.5
2017-07-11T12:49:11.682Z,25.5
2017-07-11T12:50:13.720Z,25.7
2017-07-11T12:51:15.752Z,25.3
2017-07-11T12:52:17.799Z,25.1
2017-07-11T12:53:19.837Z,25.1
2017-07-11T12:54:21.867Z,25.4
2017-07-11T12:55:23.907Z,25.1
2017-07-11T12:56:25.939Z,24.8
2017-07-11T12:57:27.987Z,24.7
2017-07-11T12:58:30.025Z,24.5
2017-07-11T12:59:32.056Z,24.7
2017-07-11T13:00:34.096Z,24.5
2017-07-11T13:01:36.139Z,24.7
2017-07-11T13:02:38.511Z,24.7
2017-07-11T13:03:40.546Z,24.6
2017-07-11T13:04:42.570Z,24.4
2017-07-11T13:05:44.612Z,24.3
2017-07-11T13:06:46.653Z,24.3
2017-07-11T13:07:48.684Z,24.1
2017-07-11T13:08:50.731Z,23.9
2017-07-11T13:09:52.778Z,23.9
2017-07-11T13:10:54.803Z,23.8
2017-07-11T13:11:56.859Z,23.7
2017-07-11T13:12:58.898Z,23.7
2017-07-11T13:14:00.954Z,23.5
2017-07-11T13:15:02.979Z,23.4
2017-07-11T13:16:05.023Z,23.3
2017-07-11T13:17:07.057Z,23.1
2017-07-11T13:18:09.094Z,23.3
2017-07-11T13:19:11.122Z,23.3
2017-07-11T13:20:13.160Z,23.2
2017-07-11T13:21:15.190Z,22.9
2017-07-11T13:22:17.221Z,23
2017-07-11T13:23:19.595Z,23
2017-07-11T13:24:21.636Z,23
2017-07-11T13:25:23.667Z,22.9
2017-07-11T13:26:25.697Z,22.9
2017-07-11T13:27:27.729Z,22.8
2017-07-11T13:28:29.770Z,22.8
2017-07-11T13:29:31.792Z,22.8
2017-07-11T13:30:34.191Z,22.8
2017-07-11T13:31:36.223Z,22.8
2017-07-11T13:32:38.256Z,22.7
2017-07-11T13:33:40.287Z,22.5
2017-07-11T13:34:42.321Z,22.5
2017-07-11T13:35:44.358Z,22.6
2017-07-11T13:36:46.398Z,22.4
2017-07-11T13:37:48.434Z,22.4
2017-07-11T13:38:50.456Z,22.6
2017-07-11T13:39:52.488Z,22.3
2017-07-11T13:40:54.525Z,22.2
2017-07-11T13:41:56.552Z,22.1
2017-07-11T13:42:58.585Z,22.1
2017-07-11T13:44:00.617Z,22
2017-07-11T13:45:02.656Z,21.9
2017-07-11T13:46:04.675Z,21.7
2017-07-11T13:47:06.708Z,21.6
2017-07-11T13:48:08.741Z,21.4
2017-07-11T13:49:10.776Z,21.2
2017-07-11T13:50:12.804Z,21.1
2017-07-11T13:51:14.838Z,21
2017-07-11T13:52:16.871Z,20.9
2017-07-11T13:53:18.903Z,20.9
2017-07-11T13:54:20.922Z,20.9
2017-07-11T13:55:22.964Z,20.9
2017-07-11T13:56:24.990Z,20.9
2017-07-11T13:57:27.014Z,20.8
2017-07-11T13:58:29.042Z,20.7